PWSweather.com
Personal Weather Stations
Station Observations
SPARKSRC
St. Petersburg, FL 33716

St. Petersburg, FL 33716

Lat: 27.876101, Lon: -82.657194

Elevation: 13

Station Type: Zephyr PWS-1000TD

High Low Average
Temperature 92.3°F33.5°F 68.2°F20.1°F 77.9°F25.5°F
Dew Point 77.1°F25.1°F 66.7°F19.3°F 70.9°F21.6°F
Winds 8.3 mph ENE13.4 mph ENE Calm Calm 3.1 mph 5.0 mph
Wind Gusts 15.2 mph24.5 mph 1.6 mph2.6 mph 6.5 mph10.5 mph
Humidity 99% 50% 81%
Pressure 30.01 in1016.30 in 29.88 in1011.90 in -
Precipitation 0.00 in0.00 in - -
Hour Temp Dew Point Humidity Winds Wind Gusts Pressure Precip Precip Rate Daily Precip Total
12:00 AM 74.8°F23.8°C 71.4°F21.9°C 89% 7.6 mph ENE12.2 kmh ENE 15.2 mph24.5 kmh 29.99 in1015.6 mb 0.00 in0.0 mm 0.00 in/hr0.0 mm/hr 0.00 in0.0 mm
12:05 AM 74.7°F23.7°C 71.6°F22.0°C 90% 8.3 mph ENE13.4 kmh ENE 13.0 mph20.9 kmh 29.98 in1015.2 mb 0.00 in0.0 mm 0.00 in/hr0.0 mm/hr 0.00 in0.0 mm
12:10 AM 74.7°F23.7°C 71.6°F22.0°C 90% 6.9 mph ENE11.1 kmh ENE 14.5 mph23.3 kmh 29.98 in1015.2 mb 0.00 in0.0 mm 0.00 in/hr0.0 mm/hr 0.00 in0.0 mm
12:15 AM 74.5°F23.6°C 71.4°F21.9°C 90% 6.9 mph E11.1 kmh E 14.5 mph23.3 kmh 29.99 in1015.6 mb 0.00 in0.0 mm 0.00 in/hr0.0 mm/hr 0.00 in0.0 mm
12:20 AM 74.3°F23.5°C 71.5°F21.9°C 91% 6.0 mph ENE9.7 kmh ENE 13.6 mph21.9 kmh 29.99 in1015.6 mb 0.00 in0.0 mm 0.00 in/hr0.0 mm/hr 0.00 in0.0 mm
12:25 AM 74.1°F23.4°C 71.4°F21.9°C 91% 5.4 mph ENE8.7 kmh ENE 12.1 mph19.5 kmh 29.99 in1015.6 mb 0.00 in0.0 mm 0.00 in/hr0.0 mm/hr 0.00 in0.0 mm
12:30 AM 73.9°F23.3°C 71.5°F21.9°C 92% 6.9 mph ENE11.1 kmh ENE 12.1 mph19.5 kmh 29.98 in1015.2 mb 0.00 in0.0 mm 0.00 in/hr0.0 mm/hr 0.00 in0.0 mm
12:35 AM 73.8°F23.2°C 71.3°F21.8°C 92% 6.0 mph ENE9.7 kmh ENE 12.1 mph19.5 kmh 29.99 in1015.6 mb 0.00 in0.0 mm 0.00 in/hr0.0 mm/hr 0.00 in0.0 mm
12:40 AM 73.8°F23.2°C 71.7°F22.1°C 93% 2.2 mph ENE3.5 kmh ENE 12.1 mph19.5 kmh 29.98 in1015.2 mb 0.00 in0.0 mm 0.00 in/hr0.0 mm/hr 0.00 in0.0 mm
12:45 AM 73.6°F23.1°C 71.8°F22.1°C 94% 3.8 mph ENE6.1 kmh ENE 9.8 mph15.8 kmh 29.99 in1015.6 mb 0.00 in0.0 mm 0.00 in/hr0.0 mm/hr 0.00 in0.0 mm
12:50 AM 73.6°F23.1°C 71.8°F22.1°C 94% 2.2 mph NE3.5 kmh NE 7.6 mph12.2 kmh 29.98 in1015.2 mb 0.00 in0.0 mm 0.00 in/hr0.0 mm/hr 0.00 in0.0 mm
12:55 AM 73.4°F23.0°C 71.6°F22.0°C 94% 3.1 mph NE5.0 kmh NE 7.6 mph12.2 kmh 29.98 in1015.2 mb 0.00 in0.0 mm 0.00 in/hr0.0 mm/hr 0.00 in0.0 mm
01:00 AM 73.2°F22.9°C 71.7°F22.1°C 95% 3.1 mph NE5.0 kmh NE 7.6 mph12.2 kmh 29.99 in1015.6 mb 0.00 in0.0 mm 0.00 in/hr0.0 mm/hr 0.00 in0.0 mm
01:05 AM 73.0°F22.8°C 71.9°F22.2°C 96% 6.9 mph NE11.1 kmh NE 13.0 mph20.9 kmh 29.98 in1015.2 mb 0.00 in0.0 mm 0.00 in/hr0.0 mm/hr 0.00 in0.0 mm
01:10 AM 73.0°F22.8°C 71.9°F22.2°C 96% 3.8 mph NE6.1 kmh NE 13.0 mph20.9 kmh 29.98 in1015.2 mb 0.00 in0.0 mm 0.00 in/hr0.0 mm/hr 0.00 in0.0 mm
01:15 AM 72.9°F22.7°C 71.7°F22.1°C 96% 4.5 mph NE7.2 kmh NE 13.0 mph20.9 kmh 29.98 in1015.2 mb 0.00 in0.0 mm 0.00 in/hr0.0 mm/hr 0.00 in0.0 mm
01:20 AM 72.9°F22.7°C 71.7°F22.1°C 96% 3.8 mph NE6.1 kmh NE 9.2 mph14.8 kmh 29.98 in1015.2 mb 0.00 in0.0 mm 0.00 in/hr0.0 mm/hr 0.00 in0.0 mm
01:25 AM 72.7°F22.6°C 71.8°F22.1°C 97% 4.5 mph NE7.2 kmh NE 9.2 mph14.8 kmh 29.98 in1015.2 mb 0.00 in0.0 mm 0.00 in/hr0.0 mm/hr 0.00 in0.0 mm
01:30 AM 72.7°F22.6°C 71.8°F22.1°C 97% 3.1 mph ENE5.0 kmh ENE 7.6 mph12.2 kmh 29.98 in1015.2 mb 0.00 in0.0 mm 0.00 in/hr0.0 mm/hr 0.00 in0.0 mm
01:35 AM 72.5°F22.5°C 71.6°F22.0°C 97% 3.8 mph ENE6.1 kmh ENE 7.6 mph12.2 kmh 29.98 in1015.2 mb 0.00 in0.0 mm 0.00 in/hr0.0 mm/hr 0.00 in0.0 mm
01:40 AM 72.5°F22.5°C 71.6°F22.0°C 97% 3.1 mph ENE5.0 kmh ENE 7.6 mph12.2 kmh 29.98 in1015.2 mb 0.00 in0.0 mm 0.00 in/hr0.0 mm/hr 0.00 in0.0 mm
01:45 AM 72.3°F22.4°C 71.8°F22.1°C 98% 3.8 mph ENE6.1 kmh ENE 7.6 mph12.2 kmh 29.98 in1015.2 mb 0.00 in0.0 mm 0.00 in/hr0.0 mm/hr 0.00 in0.0 mm
01:50 AM 72.3°F22.4°C 71.8°F22.1°C 98% 3.8 mph NE6.1 kmh NE 8.3 mph13.4 kmh 29.98 in1015.2 mb 0.00 in0.0 mm 0.00 in/hr0.0 mm/hr 0.00 in0.0 mm
01:55 AM 72.1°F22.3°C 71.6°F22.0°C 98% 3.8 mph NE6.1 kmh NE 8.3 mph13.4 kmh 29.98 in1015.2 mb 0.00 in0.0 mm 0.00 in/hr0.0 mm/hr 0.00 in0.0 mm
02:00 AM 72.0°F22.2°C 71.4°F21.9°C 98% 3.1 mph NE5.0 kmh NE 7.6 mph12.2 kmh 29.98 in1015.2 mb 0.00 in0.0 mm 0.00 in/hr0.0 mm/hr 0.00 in0.0 mm
02:05 AM 71.8°F22.1°C 71.2°F21.8°C 98% 3.1 mph NE5.0 kmh NE 7.6 mph12.2 kmh 29.98 in1015.2 mb 0.00 in0.0 mm 0.00 in/hr0.0 mm/hr 0.00 in0.0 mm
02:10 AM 71.8°F22.1°C 71.2°F21.8°C 98% 2.2 mph NE3.5 kmh NE 4.5 mph7.2 kmh 29.98 in1015.2 mb 0.00 in0.0 mm 0.00 in/hr0.0 mm/hr 0.00 in0.0 mm
02:15 AM 71.6°F22.0°C 71.3°F21.8°C 99% 2.2 mph NE3.5 kmh NE 4.5 mph7.2 kmh 29.98 in1015.2 mb 0.00 in0.0 mm 0.00 in/hr0.0 mm/hr 0.00 in0.0 mm
02:20 AM 71.6°F22.0°C 71.3°F21.8°C 99% 3.1 mph NE5.0 kmh NE 4.5 mph7.2 kmh 29.98 in1015.2 mb 0.00 in0.0 mm 0.00 in/hr0.0 mm/hr 0.00 in0.0 mm
02:25 AM 71.4°F21.9°C 71.2°F21.8°C 99% 1.6 mph ENE2.6 kmh ENE 4.5 mph7.2 kmh 29.98 in1015.2 mb 0.00 in0.0 mm 0.00 in/hr0.0 mm/hr 0.00 in0.0 mm
02:30 AM 71.2°F21.8°C 71.0°F21.7°C 99% 2.2 mph E3.5 kmh E 4.5 mph7.2 kmh 29.97 in1014.9 mb 0.00 in0.0 mm 0.00 in/hr0.0 mm/hr 0.00 in0.0 mm
02:35 AM 71.1°F21.7°C 70.8°F21.6°C 99% 1.6 mph ENE2.6 kmh ENE 3.8 mph6.1 kmh 29.98 in1015.2 mb 0.00 in0.0 mm 0.00 in/hr0.0 mm/hr 0.00 in0.0 mm
02:40 AM 71.1°F21.7°C 70.8°F21.6°C 99% 1.6 mph NE2.6 kmh NE 3.8 mph6.1 kmh 29.97 in1014.9 mb 0.00 in0.0 mm 0.00 in/hr0.0 mm/hr 0.00 in0.0 mm
02:45 AM 70.9°F21.6°C 70.6°F21.4°C 99% 0.7 mph NE1.1 kmh NE 3.1 mph5.0 kmh 29.98 in1015.2 mb 0.00 in0.0 mm 0.00 in/hr0.0 mm/hr 0.00 in0.0 mm
02:50 AM 70.7°F21.5°C 70.4°F21.3°C 99% 1.6 mph NE2.6 kmh NE 3.1 mph5.0 kmh 29.97 in1014.9 mb 0.00 in0.0 mm 0.00 in/hr0.0 mm/hr 0.00 in0.0 mm
02:55 AM 70.5°F21.4°C 70.3°F21.3°C 99% 2.2 mph NE3.5 kmh NE 4.5 mph7.2 kmh 29.97 in1014.9 mb 0.00 in0.0 mm 0.00 in/hr0.0 mm/hr 0.00 in0.0 mm
03:00 AM 70.5°F21.4°C 70.3°F21.3°C 99% 2.2 mph NE3.5 kmh NE 4.5 mph7.2 kmh 29.97 in1014.9 mb 0.00 in0.0 mm 0.00 in/hr0.0 mm/hr 0.00 in0.0 mm
03:05 AM 70.3°F21.3°C 70.1°F21.2°C 99% 2.2 mph E3.5 kmh E 4.5 mph7.2 kmh 29.96 in1014.6 mb 0.00 in0.0 mm 0.00 in/hr0.0 mm/hr 0.00 in0.0 mm
03:10 AM 70.3°F21.3°C 70.1°F21.2°C 99% 2.2 mph E3.5 kmh E 4.5 mph7.2 kmh 29.96 in1014.6 mb 0.00 in0.0 mm 0.00 in/hr0.0 mm/hr 0.00 in0.0 mm
03:15 AM 70.2°F21.2°C 69.9°F21.1°C 99% 2.2 mph NE3.5 kmh NE 4.5 mph7.2 kmh 29.96 in1014.6 mb 0.00 in0.0 mm 0.00 in/hr0.0 mm/hr 0.00 in0.0 mm
03:20 AM 70.0°F21.1°C 69.7°F20.9°C 99% 3.1 mph NE5.0 kmh NE 5.4 mph8.7 kmh 29.96 in1014.6 mb 0.00 in0.0 mm 0.00 in/hr0.0 mm/hr 0.00 in0.0 mm
03:25 AM 70.0°F21.1°C 69.7°F20.9°C 99% 2.2 mph NE3.5 kmh NE 5.4 mph8.7 kmh 29.96 in1014.6 mb 0.00 in0.0 mm 0.00 in/hr0.0 mm/hr 0.00 in0.0 mm
03:30 AM 69.8°F21.0°C 69.5°F20.8°C 99% 3.1 mph NE5.0 kmh NE 5.4 mph8.7 kmh 29.96 in1014.6 mb 0.00 in0.0 mm 0.00 in/hr0.0 mm/hr 0.00 in0.0 mm
03:35 AM 69.8°F21.0°C 69.5°F20.8°C 99% 4.5 mph NE7.2 kmh NE 6.0 mph9.7 kmh 29.96 in1014.6 mb 0.00 in0.0 mm 0.00 in/hr0.0 mm/hr 0.00 in0.0 mm
03:40 AM 69.8°F21.0°C 69.5°F20.8°C 99% 2.2 mph NE3.5 kmh NE 6.0 mph9.7 kmh 29.96 in1014.6 mb 0.00 in0.0 mm 0.00 in/hr0.0 mm/hr 0.00 in0.0 mm
03:45 AM 69.8°F21.0°C 69.5°F20.8°C 99% 3.1 mph NE5.0 kmh NE 6.0 mph9.7 kmh 29.96 in1014.6 mb 0.00 in0.0 mm 0.00 in/hr0.0 mm/hr 0.00 in0.0 mm
03:50 AM 69.6°F20.9°C 69.4°F20.8°C 99% 2.2 mph NE3.5 kmh NE 4.5 mph7.2 kmh 29.96 in1014.6 mb 0.00 in0.0 mm 0.00 in/hr0.0 mm/hr 0.00 in0.0 mm
03:55 AM 69.6°F20.9°C 69.4°F20.8°C 99% 1.6 mph NE2.6 kmh NE 3.8 mph6.1 kmh 29.96 in1014.6 mb 0.00 in0.0 mm 0.00 in/hr0.0 mm/hr 0.00 in0.0 mm
04:00 AM 69.4°F20.8°C 69.2°F20.7°C 99% 0.7 mph NE1.1 kmh NE 3.8 mph6.1 kmh 29.96 in1014.6 mb 0.00 in0.0 mm 0.00 in/hr0.0 mm/hr 0.00 in0.0 mm
04:05 AM 69.3°F20.7°C 69.0°F20.6°C 99% 0.7 mph NE1.1 kmh NE 3.1 mph5.0 kmh 29.96 in1014.6 mb 0.00 in0.0 mm 0.00 in/hr0.0 mm/hr 0.00 in0.0 mm
04:10 AM 69.3°F20.7°C 69.0°F20.6°C 99% 0.7 mph NE1.1 kmh NE 1.6 mph2.6 kmh 29.96 in1014.6 mb 0.00 in0.0 mm 0.00 in/hr0.0 mm/hr 0.00 in0.0 mm
04:15 AM 68.9°F20.5°C 68.6°F20.3°C 99% 1.6 mph NE2.6 kmh NE 2.2 mph3.5 kmh 29.96 in1014.6 mb 0.00 in0.0 mm 0.00 in/hr0.0 mm/hr 0.00 in0.0 mm
04:20 AM 69.1°F20.6°C 68.8°F20.4°C 99% 1.6 mph NE2.6 kmh NE 3.1 mph5.0 kmh 29.96 in1014.6 mb 0.00 in0.0 mm 0.00 in/hr0.0 mm/hr 0.00 in0.0 mm
04:25 AM 68.9°F20.5°C 68.6°F20.3°C 99% Calm Calm 3.1 mph5.0 kmh 29.96 in1014.6 mb 0.00 in0.0 mm 0.00 in/hr0.0 mm/hr 0.00 in0.0 mm
04:30 AM 68.9°F20.5°C 68.6°F20.3°C 99% Calm Calm 3.1 mph5.0 kmh 29.96 in1014.6 mb 0.00 in0.0 mm 0.00 in/hr0.0 mm/hr 0.00 in0.0 mm
04:35 AM 68.7°F20.4°C 68.5°F20.3°C 99% Calm Calm 1.6 mph2.6 kmh 29.96 in1014.6 mb 0.00 in0.0 mm 0.00 in/hr0.0 mm/hr 0.00 in0.0 mm
04:40 AM 68.5°F20.3°C 68.3°F20.2°C 99% Calm Calm 1.6 mph2.6 kmh 29.96 in1014.6 mb 0.00 in0.0 mm 0.00 in/hr0.0 mm/hr 0.00 in0.0 mm
04:45 AM 68.5°F20.3°C 68.3°F20.2°C 99% Calm Calm 1.6 mph2.6 kmh 29.96 in1014.6 mb 0.00 in0.0 mm 0.00 in/hr0.0 mm/hr 0.00 in0.0 mm
04:50 AM 68.4°F20.2°C 68.1°F20.1°C 99% Calm Calm 1.6 mph2.6 kmh 29.96 in1014.6 mb 0.00 in0.0 mm 0.00 in/hr0.0 mm/hr 0.00 in0.0 mm
04:55 AM 68.4°F20.2°C 68.1°F20.1°C 99% Calm Calm 2.2 mph3.5 kmh 29.96 in1014.6 mb 0.00 in0.0 mm 0.00 in/hr0.0 mm/hr 0.00 in0.0 mm
05:00 AM 68.5°F20.3°C 68.3°F20.2°C 99% 1.6 mph N2.6 kmh N 2.2 mph3.5 kmh 29.96 in1014.6 mb 0.00 in0.0 mm 0.00 in/hr0.0 mm/hr 0.00 in0.0 mm
05:05 AM 68.5°F20.3°C 68.3°F20.2°C 99% 3.1 mph NNE5.0 kmh NNE 4.5 mph7.2 kmh 29.96 in1014.6 mb 0.00 in0.0 mm 0.00 in/hr0.0 mm/hr 0.00 in0.0 mm
05:10 AM 68.5°F20.3°C 68.3°F20.2°C 99% 3.1 mph NE5.0 kmh NE 4.5 mph7.2 kmh 29.96 in1014.6 mb 0.00 in0.0 mm 0.00 in/hr0.0 mm/hr 0.00 in0.0 mm
05:15 AM 68.5°F20.3°C 68.3°F20.2°C 99% 2.2 mph NE3.5 kmh NE 4.5 mph7.2 kmh 29.96 in1014.6 mb 0.00 in0.0 mm 0.00 in/hr0.0 mm/hr 0.00 in0.0 mm
05:20 AM 68.7°F20.4°C 68.5°F20.3°C 99% 2.2 mph NE3.5 kmh NE 4.5 mph7.2 kmh 29.96 in1014.6 mb 0.00 in0.0 mm 0.00 in/hr0.0 mm/hr 0.00 in0.0 mm
05:25 AM 68.7°F20.4°C 68.5°F20.3°C 99% 2.2 mph NE3.5 kmh NE 4.5 mph7.2 kmh 29.96 in1014.6 mb 0.00 in0.0 mm 0.00 in/hr0.0 mm/hr 0.00 in0.0 mm
05:30 AM 68.7°F20.4°C 68.5°F20.3°C 99% 3.1 mph NE5.0 kmh NE 5.4 mph8.7 kmh 29.96 in1014.6 mb 0.00 in0.0 mm 0.00 in/hr0.0 mm/hr 0.00 in0.0 mm
05:35 AM 68.7°F20.4°C 68.5°F20.3°C 99% 2.2 mph NE3.5 kmh NE 5.4 mph8.7 kmh 29.96 in1014.6 mb 0.00 in0.0 mm 0.00 in/hr0.0 mm/hr 0.00 in0.0 mm
05:40 AM 68.7°F20.4°C 68.5°F20.3°C 99% 2.2 mph ENE3.5 kmh ENE 4.5 mph7.2 kmh 29.97 in1014.9 mb 0.00 in0.0 mm 0.00 in/hr0.0 mm/hr 0.00 in0.0 mm
05:45 AM 68.7°F20.4°C 68.5°F20.3°C 99% 2.2 mph E3.5 kmh E 4.5 mph7.2 kmh 29.97 in1014.9 mb 0.00 in0.0 mm 0.00 in/hr0.0 mm/hr 0.00 in0.0 mm
05:50 AM 68.7°F20.4°C 68.5°F20.3°C 99% 2.2 mph ENE3.5 kmh ENE 3.8 mph6.1 kmh 29.97 in1014.9 mb 0.00 in0.0 mm 0.00 in/hr0.0 mm/hr 0.00 in0.0 mm
05:55 AM 68.5°F20.3°C 68.3°F20.2°C 99% 2.2 mph ENE3.5 kmh ENE 3.8 mph6.1 kmh 29.97 in1014.9 mb 0.00 in0.0 mm 0.00 in/hr0.0 mm/hr 0.00 in0.0 mm
06:00 AM 68.7°F20.4°C 68.5°F20.3°C 99% 1.6 mph NE2.6 kmh NE 3.8 mph6.1 kmh 29.97 in1014.9 mb 0.00 in0.0 mm 0.00 in/hr0.0 mm/hr 0.00 in0.0 mm
06:05 AM 68.5°F20.3°C 68.3°F20.2°C 99% 1.6 mph NE2.6 kmh NE 3.8 mph6.1 kmh 29.97 in1014.9 mb 0.00 in0.0 mm 0.00 in/hr0.0 mm/hr 0.00 in0.0 mm
06:10 AM 68.5°F20.3°C 68.3°F20.2°C 99% 1.6 mph NE2.6 kmh NE 3.8 mph6.1 kmh 29.97 in1014.9 mb 0.00 in0.0 mm 0.00 in/hr0.0 mm/hr 0.00 in0.0 mm
06:15 AM 68.5°F20.3°C 68.3°F20.2°C 99% 1.6 mph NE2.6 kmh NE 3.8 mph6.1 kmh 29.97 in1014.9 mb 0.00 in0.0 mm 0.00 in/hr0.0 mm/hr 0.00 in0.0 mm
06:20 AM 68.4°F20.2°C 68.1°F20.1°C 99% 1.6 mph NE2.6 kmh NE 3.8 mph6.1 kmh 29.97 in1014.9 mb 0.00 in0.0 mm 0.00 in/hr0.0 mm/hr 0.00 in0.0 mm
06:25 AM 68.4°F20.2°C 68.1°F20.1°C 99% 0.7 mph NE1.1 kmh NE 3.1 mph5.0 kmh 29.97 in1014.9 mb 0.00 in0.0 mm 0.00 in/hr0.0 mm/hr 0.00 in0.0 mm
06:30 AM 68.4°F20.2°C 68.1°F20.1°C 99% 2.2 mph NE3.5 kmh NE 3.1 mph5.0 kmh 29.97 in1014.9 mb 0.00 in0.0 mm 0.00 in/hr0.0 mm/hr 0.00 in0.0 mm
06:35 AM 68.4°F20.2°C 68.1°F20.1°C 99% 2.2 mph NE3.5 kmh NE 4.5 mph7.2 kmh 29.98 in1015.2 mb 0.00 in0.0 mm 0.00 in/hr0.0 mm/hr 0.00 in0.0 mm
06:40 AM 68.2°F20.1°C 67.9°F19.9°C 99% 1.6 mph NE2.6 kmh NE 4.5 mph7.2 kmh 29.98 in1015.2 mb 0.00 in0.0 mm 0.00 in/hr0.0 mm/hr 0.00 in0.0 mm
06:45 AM 68.4°F20.2°C 68.1°F20.1°C 99% 2.2 mph NE3.5 kmh NE 3.8 mph6.1 kmh 29.98 in1015.2 mb 0.00 in0.0 mm 0.00 in/hr0.0 mm/hr 0.00 in0.0 mm
06:50 AM 68.4°F20.2°C 68.1°F20.1°C 99% 3.1 mph NE5.0 kmh NE 5.4 mph8.7 kmh 29.98 in1015.2 mb 0.00 in0.0 mm 0.00 in/hr0.0 mm/hr 0.00 in0.0 mm
06:55 AM 68.4°F20.2°C 68.1°F20.1°C 99% 2.2 mph NE3.5 kmh NE 5.4 mph8.7 kmh 29.98 in1015.2 mb 0.00 in0.0 mm 0.00 in/hr0.0 mm/hr 0.00 in0.0 mm
07:00 AM 68.2°F20.1°C 67.9°F19.9°C 99% 2.2 mph NE3.5 kmh NE 4.5 mph7.2 kmh 29.98 in1015.2 mb 0.00 in0.0 mm 0.00 in/hr0.0 mm/hr 0.00 in0.0 mm
07:05 AM 68.2°F20.1°C 67.9°F19.9°C 99% 2.2 mph NE3.5 kmh NE 4.5 mph7.2 kmh 29.98 in1015.2 mb 0.00 in0.0 mm 0.00 in/hr0.0 mm/hr 0.00 in0.0 mm
07:10 AM 68.2°F20.1°C 67.9°F19.9°C 99% 2.2 mph NE3.5 kmh NE 4.5 mph7.2 kmh 29.98 in1015.2 mb 0.00 in0.0 mm 0.00 in/hr0.0 mm/hr 0.00 in0.0 mm
07:15 AM 68.2°F20.1°C 67.9°F19.9°C 99% 2.2 mph NE3.5 kmh NE 4.5 mph7.2 kmh 29.98 in1015.2 mb 0.00 in0.0 mm 0.00 in/hr0.0 mm/hr 0.00 in0.0 mm
07:20 AM 68.2°F20.1°C 67.9°F19.9°C 99% 1.6 mph NE2.6 kmh NE 4.5 mph7.2 kmh 29.99 in1015.6 mb 0.00 in0.0 mm 0.00 in/hr0.0 mm/hr 0.00 in0.0 mm
07:25 AM 68.2°F20.1°C 67.9°F19.9°C 99% 2.2 mph NE3.5 kmh NE 4.5 mph7.2 kmh 29.98 in1015.2 mb 0.00 in0.0 mm 0.00 in/hr0.0 mm/hr 0.00 in0.0 mm
07:30 AM 68.2°F20.1°C 67.9°F19.9°C 99% 2.2 mph NE3.5 kmh NE 4.5 mph7.2 kmh 29.98 in1015.2 mb 0.00 in0.0 mm 0.00 in/hr0.0 mm/hr 0.00 in0.0 mm
07:35 AM 68.2°F20.1°C 67.9°F19.9°C 99% 1.6 mph NE2.6 kmh NE 3.8 mph6.1 kmh 29.99 in1015.6 mb 0.00 in0.0 mm 0.00 in/hr0.0 mm/hr 0.00 in0.0 mm
07:40 AM 68.2°F20.1°C 67.9°F19.9°C 99% 2.2 mph NE3.5 kmh NE 3.8 mph6.1 kmh 29.99 in1015.6 mb 0.00 in0.0 mm 0.00 in/hr0.0 mm/hr 0.00 in0.0 mm
07:45 AM 68.2°F20.1°C 67.9°F19.9°C 99% 2.2 mph NE3.5 kmh NE 4.5 mph7.2 kmh 29.99 in1015.6 mb 0.00 in0.0 mm 0.00 in/hr0.0 mm/hr 0.00 in0.0 mm
07:50 AM 68.2°F20.1°C 67.9°F19.9°C 99% 1.6 mph NE2.6 kmh NE 4.5 mph7.2 kmh 29.99 in1015.6 mb 0.00 in0.0 mm 0.00 in/hr0.0 mm/hr 0.00 in0.0 mm
07:55 AM 68.4°F20.2°C 68.1°F20.1°C 99% 2.2 mph NE3.5 kmh NE 5.4 mph8.7 kmh 29.99 in1015.6 mb 0.00 in0.0 mm 0.00 in/hr0.0 mm/hr 0.00 in0.0 mm
08:00 AM 68.5°F20.3°C 68.3°F20.2°C 99% 3.1 mph NE5.0 kmh NE 5.4 mph8.7 kmh 29.99 in1015.6 mb 0.00 in0.0 mm 0.00 in/hr0.0 mm/hr 0.00 in0.0 mm
08:05 AM 68.9°F20.5°C 68.6°F20.3°C 99% 2.2 mph NE3.5 kmh NE 5.4 mph8.7 kmh 29.99 in1015.6 mb 0.00 in0.0 mm 0.00 in/hr0.0 mm/hr 0.00 in0.0 mm
08:10 AM 69.1°F20.6°C 68.8°F20.4°C 99% 3.8 mph NE6.1 kmh NE 6.0 mph9.7 kmh 30.00 in1015.9 mb 0.00 in0.0 mm 0.00 in/hr0.0 mm/hr 0.00 in0.0 mm
08:15 AM 69.3°F20.7°C 69.0°F20.6°C 99% 3.1 mph NE5.0 kmh NE 6.0 mph9.7 kmh 30.00 in1015.9 mb 0.00 in0.0 mm 0.00 in/hr0.0 mm/hr 0.00 in0.0 mm
08:20 AM 69.6°F20.9°C 69.4°F20.8°C 99% 0.7 mph NE1.1 kmh NE 6.9 mph11.1 kmh 30.00 in1015.9 mb 0.00 in0.0 mm 0.00 in/hr0.0 mm/hr 0.00 in0.0 mm
08:25 AM 70.0°F21.1°C 69.7°F20.9°C 99% 2.2 mph NE3.5 kmh NE 6.9 mph11.1 kmh 30.01 in1016.3 mb 0.00 in0.0 mm 0.00 in/hr0.0 mm/hr 0.00 in0.0 mm
08:30 AM 70.3°F21.3°C 70.1°F21.2°C 99% 2.2 mph NE3.5 kmh NE 4.5 mph7.2 kmh 30.00 in1015.9 mb 0.00 in0.0 mm 0.00 in/hr0.0 mm/hr 0.00 in0.0 mm
08:35 AM 70.7°F21.5°C 70.4°F21.3°C 99% 2.2 mph ENE3.5 kmh ENE 4.5 mph7.2 kmh 30.01 in1016.3 mb 0.00 in0.0 mm 0.00 in/hr0.0 mm/hr 0.00 in0.0 mm
08:40 AM 71.1°F21.7°C 70.8°F21.6°C 99% 3.1 mph ENE5.0 kmh ENE 5.4 mph8.7 kmh 30.01 in1016.3 mb 0.00 in0.0 mm 0.00 in/hr0.0 mm/hr 0.00 in0.0 mm
08:45 AM 71.4°F21.9°C 71.2°F21.8°C 99% 3.1 mph NE5.0 kmh NE 6.9 mph11.1 kmh 30.01 in1016.3 mb 0.00 in0.0 mm 0.00 in/hr0.0 mm/hr 0.00 in0.0 mm
08:50 AM 71.8°F22.1°C 71.5°F21.9°C 99% 3.1 mph NE5.0 kmh NE 6.9 mph11.1 kmh 30.01 in1016.3 mb 0.00 in0.0 mm 0.00 in/hr0.0 mm/hr 0.00 in0.0 mm
08:55 AM 72.3°F22.4°C 72.1°F22.3°C 99% 3.1 mph NE5.0 kmh NE 6.0 mph9.7 kmh 30.01 in1016.3 mb 0.00 in0.0 mm 0.00 in/hr0.0 mm/hr 0.00 in0.0 mm
09:00 AM 72.7°F22.6°C 72.4°F22.4°C 99% 3.8 mph ENE6.1 kmh ENE 6.0 mph9.7 kmh 30.01 in1016.3 mb 0.00 in0.0 mm 0.00 in/hr0.0 mm/hr 0.00 in0.0 mm
09:05 AM 73.0°F22.8°C 72.8°F22.7°C 99% 3.8 mph NE6.1 kmh NE 6.9 mph11.1 kmh 30.01 in1016.3 mb 0.00 in0.0 mm 0.00 in/hr0.0 mm/hr 0.00 in0.0 mm
09:10 AM 73.6°F23.1°C 73.3°F22.9°C 99% 3.1 mph NE5.0 kmh NE 6.9 mph11.1 kmh 30.01 in1016.3 mb 0.00 in0.0 mm 0.00 in/hr0.0 mm/hr 0.00 in0.0 mm
09:15 AM 73.9°F23.3°C 73.7°F23.2°C 99% 4.5 mph NE7.2 kmh NE 7.6 mph12.2 kmh 30.01 in1016.3 mb 0.00 in0.0 mm 0.00 in/hr0.0 mm/hr 0.00 in0.0 mm
09:20 AM 74.7°F23.7°C 74.4°F23.6°C 99% 4.5 mph NE7.2 kmh NE 7.6 mph12.2 kmh 30.01 in1016.3 mb 0.00 in0.0 mm 0.00 in/hr0.0 mm/hr 0.00 in0.0 mm
09:25 AM 75.0°F23.9°C 74.8°F23.8°C 99% 5.4 mph NE8.7 kmh NE 7.6 mph12.2 kmh 30.01 in1016.3 mb 0.00 in0.0 mm 0.00 in/hr0.0 mm/hr 0.00 in0.0 mm
09:30 AM 75.4°F24.1°C 75.1°F23.9°C 99% 4.5 mph ENE7.2 kmh ENE 8.3 mph13.4 kmh 30.01 in1016.3 mb 0.00 in0.0 mm 0.00 in/hr0.0 mm/hr 0.00 in0.0 mm
09:35 AM 75.7°F24.3°C 75.5°F24.2°C 99% 5.4 mph NE8.7 kmh NE 8.3 mph13.4 kmh 30.01 in1016.3 mb 0.00 in0.0 mm 0.00 in/hr0.0 mm/hr 0.00 in0.0 mm
09:40 AM 76.5°F24.7°C 76.2°F24.6°C 99% 2.2 mph NE3.5 kmh NE 8.3 mph13.4 kmh 30.01 in1016.3 mb 0.00 in0.0 mm 0.00 in/hr0.0 mm/hr 0.00 in0.0 mm
09:45 AM 77.2°F25.1°C 76.6°F24.8°C 98% 2.2 mph ENE3.5 kmh ENE 8.3 mph13.4 kmh 30.01 in1016.3 mb 0.00 in0.0 mm 0.00 in/hr0.0 mm/hr 0.00 in0.0 mm
09:50 AM 77.7°F25.4°C 76.2°F24.6°C 95% 3.8 mph E6.1 kmh E 7.6 mph12.2 kmh 30.01 in1016.3 mb 0.00 in0.0 mm 0.00 in/hr0.0 mm/hr 0.00 in0.0 mm
09:55 AM 78.3°F25.7°C 76.1°F24.5°C 93% 4.5 mph E7.2 kmh E 7.6 mph12.2 kmh 30.00 in1015.9 mb 0.00 in0.0 mm 0.00 in/hr0.0 mm/hr 0.00 in0.0 mm
10:00 AM 78.8°F26.0°C 76.3°F24.6°C 92% 3.1 mph ENE5.0 kmh ENE 7.6 mph12.2 kmh 30.00 in1015.9 mb 0.00 in0.0 mm 0.00 in/hr0.0 mm/hr 0.00 in0.0 mm
10:05 AM 79.2°F26.2°C 76.0°F24.4°C 90% 4.5 mph E7.2 kmh E 8.3 mph13.4 kmh 30.01 in1016.3 mb 0.00 in0.0 mm 0.00 in/hr0.0 mm/hr 0.00 in0.0 mm
10:10 AM 79.5°F26.4°C 76.1°F24.5°C 89% 4.5 mph E7.2 kmh E 8.3 mph13.4 kmh 30.00 in1015.9 mb 0.00 in0.0 mm 0.00 in/hr0.0 mm/hr 0.00 in0.0 mm
10:15 AM 79.9°F26.6°C 76.1°F24.5°C 88% 4.5 mph NE7.2 kmh NE 7.6 mph12.2 kmh 30.00 in1015.9 mb 0.00 in0.0 mm 0.00 in/hr0.0 mm/hr 0.00 in0.0 mm
10:20 AM 79.9°F26.6°C 76.1°F24.5°C 88% 3.8 mph ENE6.1 kmh ENE 7.6 mph12.2 kmh 30.00 in1015.9 mb 0.00 in0.0 mm 0.00 in/hr0.0 mm/hr 0.00 in0.0 mm
10:25 AM 80.4°F26.9°C 76.3°F24.6°C 87% 5.4 mph E8.7 kmh E 8.3 mph13.4 kmh 30.00 in1015.9 mb 0.00 in0.0 mm 0.00 in/hr0.0 mm/hr 0.00 in0.0 mm
10:30 AM 81.0°F27.2°C 76.4°F24.7°C 86% 3.8 mph NE6.1 kmh NE 8.3 mph13.4 kmh 29.99 in1015.6 mb 0.00 in0.0 mm 0.00 in/hr0.0 mm/hr 0.00 in0.0 mm
10:35 AM 81.7°F27.6°C 77.1°F25.1°C 86% 3.1 mph NE5.0 kmh NE 7.6 mph12.2 kmh 29.99 in1015.6 mb 0.00 in0.0 mm 0.00 in/hr0.0 mm/hr 0.00 in0.0 mm
10:40 AM 82.4°F28.0°C 77.1°F25.1°C 84% 3.1 mph E5.0 kmh E 7.6 mph12.2 kmh 29.99 in1015.6 mb 0.00 in0.0 mm 0.00 in/hr0.0 mm/hr 0.00 in0.0 mm
10:45 AM 82.9°F28.3°C 76.9°F24.9°C 82% 3.8 mph E6.1 kmh E 8.3 mph13.4 kmh 29.99 in1015.6 mb 0.00 in0.0 mm 0.00 in/hr0.0 mm/hr 0.00 in0.0 mm
10:50 AM 83.7°F28.7°C 76.9°F24.9°C 80% 5.4 mph E8.7 kmh E 8.3 mph13.4 kmh 30.00 in1015.9 mb 0.00 in0.0 mm 0.00 in/hr0.0 mm/hr 0.00 in0.0 mm
10:55 AM 83.5°F28.6°C 74.8°F23.8°C 75% 6.0 mph E9.7 kmh E 9.2 mph14.8 kmh 29.99 in1015.6 mb 0.00 in0.0 mm 0.00 in/hr0.0 mm/hr 0.00 in0.0 mm
11:00 AM 81.3°F27.4°C 74.2°F23.4°C 79% 6.0 mph SE9.7 kmh SE 9.2 mph14.8 kmh 29.99 in1015.6 mb 0.00 in0.0 mm 0.00 in/hr0.0 mm/hr 0.00 in0.0 mm
11:05 AM 81.7°F27.6°C 75.3°F24.1°C 81% 4.5 mph SE7.2 kmh SE 8.3 mph13.4 kmh 29.99 in1015.6 mb 0.00 in0.0 mm 0.00 in/hr0.0 mm/hr 0.00 in0.0 mm
11:10 AM 82.8°F28.2°C 75.6°F24.2°C 79% 4.5 mph E7.2 kmh E 8.3 mph13.4 kmh 29.99 in1015.6 mb 0.00 in0.0 mm 0.00 in/hr0.0 mm/hr 0.00 in0.0 mm
11:15 AM 82.9°F28.3°C 74.7°F23.7°C 76% 4.5 mph ESE7.2 kmh ESE 7.6 mph12.2 kmh 29.98 in1015.2 mb 0.00 in0.0 mm 0.00 in/hr0.0 mm/hr 0.00 in0.0 mm
11:20 AM 82.9°F28.3°C 75.0°F23.9°C 77% 3.1 mph SE5.0 kmh SE 7.6 mph12.2 kmh 29.99 in1015.6 mb 0.00 in0.0 mm 0.00 in/hr0.0 mm/hr 0.00 in0.0 mm
11:25 AM 82.9°F28.3°C 72.2°F22.3°C 70% 4.5 mph SE7.2 kmh SE 8.3 mph13.4 kmh 29.99 in1015.6 mb 0.00 in0.0 mm 0.00 in/hr0.0 mm/hr 0.00 in0.0 mm
11:30 AM 83.3°F28.5°C 73.8°F23.2°C 73% 3.1 mph SE5.0 kmh SE 8.3 mph13.4 kmh 29.99 in1015.6 mb 0.00 in0.0 mm 0.00 in/hr0.0 mm/hr 0.00 in0.0 mm
11:35 AM 84.4°F29.1°C 74.0°F23.3°C 71% 4.5 mph ESE7.2 kmh ESE 7.6 mph12.2 kmh 29.98 in1015.2 mb 0.00 in0.0 mm 0.00 in/hr0.0 mm/hr 0.00 in0.0 mm
11:40 AM 85.6°F29.8°C 74.8°F23.8°C 70% 5.4 mph E8.7 kmh E 8.3 mph13.4 kmh 29.98 in1015.2 mb 0.00 in0.0 mm 0.00 in/hr0.0 mm/hr 0.00 in0.0 mm
11:45 AM 86.4°F30.2°C 75.5°F24.2°C 70% 0.7 mph ENE1.1 kmh ENE 8.3 mph13.4 kmh 29.98 in1015.2 mb 0.00 in0.0 mm 0.00 in/hr0.0 mm/hr 0.00 in0.0 mm
11:50 AM 86.4°F30.2°C 75.5°F24.2°C 70% 3.1 mph E5.0 kmh E 8.3 mph13.4 kmh 29.99 in1015.6 mb 0.00 in0.0 mm 0.00 in/hr0.0 mm/hr 0.00 in0.0 mm
11:55 AM 87.3°F30.7°C 75.9°F24.4°C 69% 2.2 mph ENE3.5 kmh ENE 8.3 mph13.4 kmh 29.98 in1015.2 mb 0.00 in0.0 mm 0.00 in/hr0.0 mm/hr 0.00 in0.0 mm
12:00 PM 88.0°F31.1°C 73.9°F23.3°C 63% 5.4 mph ENE8.7 kmh ENE 8.3 mph13.4 kmh 29.98 in1015.2 mb 0.00 in0.0 mm 0.00 in/hr0.0 mm/hr 0.00 in0.0 mm
12:05 PM 88.2°F31.2°C 72.1°F22.3°C 59% 6.0 mph E9.7 kmh E 8.3 mph13.4 kmh 29.98 in1015.2 mb 0.00 in0.0 mm 0.00 in/hr0.0 mm/hr 0.00 in0.0 mm
12:10 PM 87.1°F30.6°C 70.1°F21.2°C 57% 5.4 mph SE8.7 kmh SE 11.4 mph18.3 kmh 29.98 in1015.2 mb 0.00 in0.0 mm 0.00 in/hr0.0 mm/hr 0.00 in0.0 mm
12:15 PM 87.4°F30.8°C 72.9°F22.7°C 62% 1.6 mph SE2.6 kmh SE 11.4 mph18.3 kmh 29.98 in1015.2 mb 0.00 in0.0 mm 0.00 in/hr0.0 mm/hr 0.00 in0.0 mm
12:20 PM 88.2°F31.2°C 73.1°F22.8°C 61% 4.5 mph E7.2 kmh E 9.2 mph14.8 kmh 29.98 in1015.2 mb 0.00 in0.0 mm 0.00 in/hr0.0 mm/hr 0.00 in0.0 mm
12:25 PM 88.3°F31.3°C 73.7°F23.2°C 62% 1.6 mph E2.6 kmh E 9.2 mph14.8 kmh 29.98 in1015.2 mb 0.00 in0.0 mm 0.00 in/hr0.0 mm/hr 0.00 in0.0 mm
12:30 PM 89.1°F31.7°C 73.9°F23.3°C 61% 0.7 mph E1.1 kmh E 7.6 mph12.2 kmh 29.97 in1014.9 mb 0.00 in0.0 mm 0.00 in/hr0.0 mm/hr 0.00 in0.0 mm
12:35 PM 89.2°F31.8°C 75.1°F23.9°C 63% 4.5 mph ENE7.2 kmh ENE 9.8 mph15.8 kmh 29.97 in1014.9 mb 0.00 in0.0 mm 0.00 in/hr0.0 mm/hr 0.00 in0.0 mm
12:40 PM 89.4°F31.9°C 71.7°F22.1°C 56% 5.4 mph E8.7 kmh E 9.8 mph15.8 kmh 29.97 in1014.9 mb 0.00 in0.0 mm 0.00 in/hr0.0 mm/hr 0.00 in0.0 mm
12:45 PM 88.0°F31.1°C 70.9°F21.6°C 57% 6.0 mph SE9.7 kmh SE 9.8 mph15.8 kmh 29.96 in1014.6 mb 0.00 in0.0 mm 0.00 in/hr0.0 mm/hr 0.00 in0.0 mm
12:50 PM 86.5°F30.3°C 69.6°F20.9°C 57% 7.6 mph SSE12.2 kmh SSE 9.8 mph15.8 kmh 29.96 in1014.6 mb 0.00 in0.0 mm 0.00 in/hr0.0 mm/hr 0.00 in0.0 mm
12:55 PM 85.8°F29.9°C 68.9°F20.5°C 57% 8.3 mph SSE13.4 kmh SSE 11.4 mph18.3 kmh 29.96 in1014.6 mb 0.00 in0.0 mm 0.00 in/hr0.0 mm/hr 0.00 in0.0 mm
01:00 PM 86.0°F30.0°C 71.0°F21.7°C 61% 6.9 mph SSE11.1 kmh SSE 11.4 mph18.3 kmh 29.96 in1014.6 mb 0.00 in0.0 mm 0.00 in/hr0.0 mm/hr 0.00 in0.0 mm
01:05 PM 86.2°F30.1°C 69.7°F20.9°C 58% 5.4 mph SE8.7 kmh SE 11.4 mph18.3 kmh 29.95 in1014.2 mb 0.00 in0.0 mm 0.00 in/hr0.0 mm/hr 0.00 in0.0 mm
01:10 PM 86.2°F30.1°C 68.7°F20.4°C 56% 5.4 mph SE8.7 kmh SE 10.7 mph17.2 kmh 29.95 in1014.2 mb 0.00 in0.0 mm 0.00 in/hr0.0 mm/hr 0.00 in0.0 mm
01:15 PM 87.1°F30.6°C 70.6°F21.4°C 58% 4.5 mph SSE7.2 kmh SSE 9.2 mph14.8 kmh 29.94 in1013.9 mb 0.00 in0.0 mm 0.00 in/hr0.0 mm/hr 0.00 in0.0 mm
01:20 PM 87.4°F30.8°C 69.4°F20.8°C 55% 3.1 mph SE5.0 kmh SE 8.3 mph13.4 kmh 29.95 in1014.2 mb 0.00 in0.0 mm 0.00 in/hr0.0 mm/hr 0.00 in0.0 mm
01:25 PM 86.7°F30.4°C 70.2°F21.2°C 58% 2.2 mph SE3.5 kmh SE 9.2 mph14.8 kmh 29.95 in1014.2 mb 0.00 in0.0 mm 0.00 in/hr0.0 mm/hr 0.00 in0.0 mm
01:30 PM 87.3°F30.7°C 68.6°F20.3°C 54% 5.4 mph SE8.7 kmh SE 9.2 mph14.8 kmh 29.94 in1013.9 mb 0.00 in0.0 mm 0.00 in/hr0.0 mm/hr 0.00 in0.0 mm
01:35 PM 87.6°F30.9°C 69.5°F20.8°C 55% 2.2 mph SSE3.5 kmh SSE 9.2 mph14.8 kmh 29.94 in1013.9 mb 0.00 in0.0 mm 0.00 in/hr0.0 mm/hr 0.00 in0.0 mm
01:40 PM 87.8°F31.0°C 70.2°F21.2°C 56% 5.4 mph SSE8.7 kmh SSE 9.2 mph14.8 kmh 29.94 in1013.9 mb 0.00 in0.0 mm 0.00 in/hr0.0 mm/hr 0.00 in0.0 mm
01:45 PM 86.9°F30.5°C 67.2°F19.6°C 52% 5.4 mph SSE8.7 kmh SSE 10.7 mph17.2 kmh 29.93 in1013.5 mb 0.00 in0.0 mm 0.00 in/hr0.0 mm/hr 0.00 in0.0 mm
01:50 PM 87.4°F30.8°C 69.4°F20.8°C 55% 3.1 mph SSE5.0 kmh SSE 10.7 mph17.2 kmh 29.93 in1013.5 mb 0.00 in0.0 mm 0.00 in/hr0.0 mm/hr 0.00 in0.0 mm
01:55 PM 87.3°F30.7°C 67.0°F19.4°C 51% 1.6 mph SSE2.6 kmh SSE 8.3 mph13.4 kmh 29.93 in1013.5 mb 0.00 in0.0 mm 0.00 in/hr0.0 mm/hr 0.00 in0.0 mm
02:00 PM 87.6°F30.9°C 70.6°F21.4°C 57% 4.5 mph SSE7.2 kmh SSE 11.4 mph18.3 kmh 29.93 in1013.5 mb 0.00 in0.0 mm 0.00 in/hr0.0 mm/hr 0.00 in0.0 mm
02:05 PM 87.6°F30.9°C 66.7°F19.3°C 50% 3.1 mph SSE5.0 kmh SSE 11.4 mph18.3 kmh 29.93 in1013.5 mb 0.00 in0.0 mm 0.00 in/hr0.0 mm/hr 0.00 in0.0 mm
02:10 PM 87.3°F30.7°C 68.1°F20.1°C 53% 5.4 mph SSE8.7 kmh SSE 8.3 mph13.4 kmh 29.93 in1013.5 mb 0.00 in0.0 mm 0.00 in/hr0.0 mm/hr 0.00 in0.0 mm
02:15 PM 87.6°F30.9°C 67.9°F19.9°C 52% 3.8 mph SSE6.1 kmh SSE 8.3 mph13.4 kmh 29.93 in1013.5 mb 0.00 in0.0 mm 0.00 in/hr0.0 mm/hr 0.00 in0.0 mm
02:20 PM 88.5°F31.4°C 68.7°F20.4°C 52% 4.5 mph SE7.2 kmh SE 8.3 mph13.4 kmh 29.92 in1013.2 mb 0.00 in0.0 mm 0.00 in/hr0.0 mm/hr 0.00 in0.0 mm
02:25 PM 89.1°F31.7°C 69.8°F21.0°C 53% 2.2 mph SE3.5 kmh SE 8.3 mph13.4 kmh 29.92 in1013.2 mb 0.00 in0.0 mm 0.00 in/hr0.0 mm/hr 0.00 in0.0 mm
02:30 PM 89.6°F32.0°C 70.3°F21.3°C 53% Calm Calm 6.9 mph11.1 kmh 29.92 in1013.2 mb 0.00 in0.0 mm 0.00 in/hr0.0 mm/hr 0.00 in0.0 mm
02:35 PM 91.0°F32.8°C 71.0°F21.7°C 52% 3.8 mph E6.1 kmh E 6.9 mph11.1 kmh 29.92 in1013.2 mb 0.00 in0.0 mm 0.00 in/hr0.0 mm/hr 0.00 in0.0 mm
02:40 PM 92.3°F33.5°C 71.0°F21.7°C 50% 2.2 mph ENE3.5 kmh ENE 6.9 mph11.1 kmh 29.91 in1012.9 mb 0.00 in0.0 mm 0.00 in/hr0.0 mm/hr 0.00 in0.0 mm
02:45 PM 90.9°F32.7°C 70.3°F21.3°C 51% 5.4 mph ESE8.7 kmh ESE 7.6 mph12.2 kmh 29.91 in1012.9 mb 0.00 in0.0 mm 0.00 in/hr0.0 mm/hr 0.00 in0.0 mm
02:50 PM 88.7°F31.5°C 68.9°F20.5°C 52% 3.8 mph SE6.1 kmh SE 11.4 mph18.3 kmh 29.92 in1013.2 mb 0.00 in0.0 mm 0.00 in/hr0.0 mm/hr 0.00 in0.0 mm
02:55 PM 88.3°F31.3°C 68.0°F20.0°C 51% 5.4 mph SSE8.7 kmh SSE 11.4 mph18.3 kmh 29.91 in1012.9 mb 0.00 in0.0 mm 0.00 in/hr0.0 mm/hr 0.00 in0.0 mm
03:00 PM 87.8°F31.0°C 69.1°F20.6°C 54% 3.8 mph S6.1 kmh S 7.6 mph12.2 kmh 29.91 in1012.9 mb 0.00 in0.0 mm 0.00 in/hr0.0 mm/hr 0.00 in0.0 mm
03:05 PM 88.5°F31.4°C 70.4°F21.3°C 55% 1.6 mph S2.6 kmh S 7.6 mph12.2 kmh 29.91 in1012.9 mb 0.00 in0.0 mm 0.00 in/hr0.0 mm/hr 0.00 in0.0 mm
03:10 PM 91.0°F32.8°C 72.2°F22.3°C 54% 1.6 mph N2.6 kmh N 5.4 mph8.7 kmh 29.91 in1012.9 mb 0.00 in0.0 mm 0.00 in/hr0.0 mm/hr 0.00 in0.0 mm
03:15 PM 90.9°F32.7°C 70.9°F21.6°C 52% 6.0 mph E9.7 kmh E 9.2 mph14.8 kmh 29.91 in1012.9 mb 0.00 in0.0 mm 0.00 in/hr0.0 mm/hr 0.00 in0.0 mm
03:20 PM 88.9°F31.6°C 69.0°F20.6°C 52% 6.0 mph SE9.7 kmh SE 9.2 mph14.8 kmh 29.90 in1012.5 mb 0.00 in0.0 mm 0.00 in/hr0.0 mm/hr 0.00 in0.0 mm
03:25 PM 89.4°F31.9°C 70.7°F21.5°C 54% 2.2 mph SE3.5 kmh SE 8.3 mph13.4 kmh 29.90 in1012.5 mb 0.00 in0.0 mm 0.00 in/hr0.0 mm/hr 0.00 in0.0 mm
03:30 PM 89.1°F31.7°C 70.3°F21.3°C 54% 3.8 mph S6.1 kmh S 7.6 mph12.2 kmh 29.90 in1012.5 mb 0.00 in0.0 mm 0.00 in/hr0.0 mm/hr 0.00 in0.0 mm
03:35 PM 89.4°F31.9°C 70.1°F21.2°C 53% 5.4 mph SW8.7 kmh SW 6.9 mph11.1 kmh 29.90 in1012.5 mb 0.00 in0.0 mm 0.00 in/hr0.0 mm/hr 0.00 in0.0 mm
03:40 PM 89.4°F31.9°C 70.1°F21.2°C 53% 4.5 mph S7.2 kmh S 7.6 mph12.2 kmh 29.90 in1012.5 mb 0.00 in0.0 mm 0.00 in/hr0.0 mm/hr 0.00 in0.0 mm
03:45 PM 88.2°F31.2°C 70.0°F21.1°C 55% 3.8 mph S6.1 kmh S 7.6 mph12.2 kmh 29.90 in1012.5 mb 0.00 in0.0 mm 0.00 in/hr0.0 mm/hr 0.00 in0.0 mm
03:50 PM 87.4°F30.8°C 68.8°F20.4°C 54% 0.7 mph SSE1.1 kmh SSE 6.9 mph11.1 kmh 29.91 in1012.9 mb 0.00 in0.0 mm 0.00 in/hr0.0 mm/hr 0.00 in0.0 mm
03:55 PM 87.6°F30.9°C 69.0°F20.6°C 54% 2.2 mph S3.5 kmh S 6.9 mph11.1 kmh 29.89 in1012.2 mb 0.00 in0.0 mm 0.00 in/hr0.0 mm/hr 0.00 in0.0 mm
04:00 PM 88.0°F31.1°C 69.3°F20.7°C 54% 1.6 mph SW2.6 kmh SW 4.5 mph7.2 kmh 29.90 in1012.5 mb 0.00 in0.0 mm 0.00 in/hr0.0 mm/hr 0.00 in0.0 mm
04:05 PM 87.4°F30.8°C 68.3°F20.2°C 53% 1.6 mph S2.6 kmh S 4.5 mph7.2 kmh 29.89 in1012.2 mb 0.00 in0.0 mm 0.00 in/hr0.0 mm/hr 0.00 in0.0 mm
04:10 PM 87.4°F30.8°C 68.3°F20.2°C 53% 0.7 mph SE1.1 kmh SE 4.5 mph7.2 kmh 29.89 in1012.2 mb 0.00 in0.0 mm 0.00 in/hr0.0 mm/hr 0.00 in0.0 mm
04:15 PM 88.0°F31.1°C 68.8°F20.4°C 53% 3.1 mph SSE5.0 kmh SSE 5.4 mph8.7 kmh 29.89 in1012.2 mb 0.00 in0.0 mm 0.00 in/hr0.0 mm/hr 0.00 in0.0 mm
04:20 PM 88.2°F31.2°C 69.5°F20.8°C 54% 2.2 mph SE3.5 kmh SE 5.4 mph8.7 kmh 29.89 in1012.2 mb 0.00 in0.0 mm 0.00 in/hr0.0 mm/hr 0.00 in0.0 mm
04:25 PM 88.2°F31.2°C 70.6°F21.4°C 56% 3.8 mph E6.1 kmh E 6.9 mph11.1 kmh 29.89 in1012.2 mb 0.00 in0.0 mm 0.00 in/hr0.0 mm/hr 0.00 in0.0 mm
04:30 PM 87.8°F31.0°C 68.6°F20.3°C 53% 0.7 mph E1.1 kmh E 6.9 mph11.1 kmh 29.89 in1012.2 mb 0.00 in0.0 mm 0.00 in/hr0.0 mm/hr 0.00 in0.0 mm
04:35 PM 87.3°F30.7°C 70.7°F21.5°C 58% 2.2 mph E3.5 kmh E 6.0 mph9.7 kmh 29.89 in1012.2 mb 0.00 in0.0 mm 0.00 in/hr0.0 mm/hr 0.00 in0.0 mm
04:40 PM 87.3°F30.7°C 70.7°F21.5°C 58% 3.8 mph E6.1 kmh E 6.0 mph9.7 kmh 29.89 in1012.2 mb 0.00 in0.0 mm 0.00 in/hr0.0 mm/hr 0.00 in0.0 mm
04:45 PM 87.3°F30.7°C 70.7°F21.5°C 58% 3.8 mph NE6.1 kmh NE 6.9 mph11.1 kmh 29.89 in1012.2 mb 0.00 in0.0 mm 0.00 in/hr0.0 mm/hr 0.00 in0.0 mm
04:50 PM 87.4°F30.8°C 70.4°F21.3°C 57% 3.8 mph NE6.1 kmh NE 6.9 mph11.1 kmh 29.89 in1012.2 mb 0.00 in0.0 mm 0.00 in/hr0.0 mm/hr 0.00 in0.0 mm
04:55 PM 88.5°F31.4°C 71.4°F21.9°C 57% 3.1 mph NE5.0 kmh NE 6.0 mph9.7 kmh 29.89 in1012.2 mb 0.00 in0.0 mm 0.00 in/hr0.0 mm/hr 0.00 in0.0 mm
05:00 PM 89.2°F31.8°C 71.0°F21.7°C 55% 3.8 mph ENE6.1 kmh ENE 5.4 mph8.7 kmh 29.89 in1012.2 mb 0.00 in0.0 mm 0.00 in/hr0.0 mm/hr 0.00 in0.0 mm
05:05 PM 89.1°F31.7°C 69.2°F20.7°C 52% 0.7 mph SE1.1 kmh SE 4.5 mph7.2 kmh 29.89 in1012.2 mb 0.00 in0.0 mm 0.00 in/hr0.0 mm/hr 0.00 in0.0 mm
05:10 PM 88.7°F31.5°C 68.9°F20.5°C 52% 2.2 mph SE3.5 kmh SE 4.5 mph7.2 kmh 29.89 in1012.2 mb 0.00 in0.0 mm 0.00 in/hr0.0 mm/hr 0.00 in0.0 mm
05:15 PM 88.2°F31.2°C 70.6°F21.4°C 56% 3.1 mph ESE5.0 kmh ESE 6.0 mph9.7 kmh 29.88 in1011.9 mb 0.00 in0.0 mm 0.00 in/hr0.0 mm/hr 0.00 in0.0 mm
05:20 PM 88.7°F31.5°C 71.1°F21.7°C 56% 5.4 mph NE8.7 kmh NE 6.9 mph11.1 kmh 29.88 in1011.9 mb 0.00 in0.0 mm 0.00 in/hr0.0 mm/hr 0.00 in0.0 mm
05:25 PM 88.7°F31.5°C 69.4°F20.8°C 53% 2.2 mph NE3.5 kmh NE 6.9 mph11.1 kmh 29.88 in1011.9 mb 0.00 in0.0 mm 0.00 in/hr0.0 mm/hr 0.00 in0.0 mm
05:30 PM 88.3°F31.3°C 70.2°F21.2°C 55% 1.6 mph ENE2.6 kmh ENE 6.9 mph11.1 kmh 29.89 in1012.2 mb 0.00 in0.0 mm 0.00 in/hr0.0 mm/hr 0.00 in0.0 mm
05:35 PM 88.2°F31.2°C 70.0°F21.1°C 55% 0.7 mph E1.1 kmh E 3.8 mph6.1 kmh 29.89 in1012.2 mb 0.00 in0.0 mm 0.00 in/hr0.0 mm/hr 0.00 in0.0 mm
05:40 PM 87.8°F31.0°C 70.2°F21.2°C 56% Calm Calm 3.1 mph5.0 kmh 29.89 in1012.2 mb 0.00 in0.0 mm 0.00 in/hr0.0 mm/hr 0.00 in0.0 mm
05:45 PM 87.4°F30.8°C 70.4°F21.3°C 57% 0.7 mph NE1.1 kmh NE 3.1 mph5.0 kmh 29.88 in1011.9 mb 0.00 in0.0 mm 0.00 in/hr0.0 mm/hr 0.00 in0.0 mm
05:50 PM 87.1°F30.6°C 70.1°F21.2°C 57% Calm Calm 2.2 mph3.5 kmh 29.88 in1011.9 mb 0.00 in0.0 mm 0.00 in/hr0.0 mm/hr 0.00 in0.0 mm
05:55 PM 87.1°F30.6°C 70.6°F21.4°C 58% 1.6 mph N2.6 kmh N 2.2 mph3.5 kmh 29.89 in1012.2 mb 0.00 in0.0 mm 0.00 in/hr0.0 mm/hr 0.00 in0.0 mm
06:00 PM 86.7°F30.4°C 70.7°F21.5°C 59% Calm Calm 2.2 mph3.5 kmh 29.88 in1011.9 mb 0.00 in0.0 mm 0.00 in/hr0.0 mm/hr 0.00 in0.0 mm
06:05 PM 86.2°F30.1°C 69.7°F20.9°C 58% Calm Calm 2.2 mph3.5 kmh 29.89 in1012.2 mb 0.00 in0.0 mm 0.00 in/hr0.0 mm/hr 0.00 in0.0 mm
06:10 PM 86.2°F30.1°C 70.2°F21.2°C 59% 0.7 mph WSW1.1 kmh WSW 1.6 mph2.6 kmh 29.88 in1011.9 mb 0.00 in0.0 mm 0.00 in/hr0.0 mm/hr 0.00 in0.0 mm
06:15 PM 85.6°F29.8°C 69.7°F20.9°C 59% 1.6 mph NW2.6 kmh NW 3.8 mph6.1 kmh 29.88 in1011.9 mb 0.00 in0.0 mm 0.00 in/hr0.0 mm/hr 0.00 in0.0 mm
06:20 PM 85.3°F29.6°C 69.9°F21.1°C 60% 1.6 mph NW2.6 kmh NW 3.8 mph6.1 kmh 29.88 in1011.9 mb 0.00 in0.0 mm 0.00 in/hr0.0 mm/hr 0.00 in0.0 mm
06:25 PM 84.6°F29.2°C 70.2°F21.2°C 62% 1.6 mph NW2.6 kmh NW 5.4 mph8.7 kmh 29.89 in1012.2 mb 0.00 in0.0 mm 0.00 in/hr0.0 mm/hr 0.00 in0.0 mm
06:30 PM 83.8°F28.8°C 70.0°F21.1°C 63% 1.6 mph NW2.6 kmh NW 5.4 mph8.7 kmh 29.89 in1012.2 mb 0.00 in0.0 mm 0.00 in/hr0.0 mm/hr 0.00 in0.0 mm
06:35 PM 83.1°F28.4°C 69.7°F20.9°C 64% 2.2 mph NW3.5 kmh NW 6.9 mph11.1 kmh 29.89 in1012.2 mb 0.00 in0.0 mm 0.00 in/hr0.0 mm/hr 0.00 in0.0 mm
06:40 PM 82.8°F28.2°C 69.8°F21.0°C 65% 3.1 mph NW5.0 kmh NW 6.9 mph11.1 kmh 29.89 in1012.2 mb 0.00 in0.0 mm 0.00 in/hr0.0 mm/hr 0.00 in0.0 mm
06:45 PM 82.2°F27.9°C 69.8°F21.0°C 66% 3.1 mph NW5.0 kmh NW 6.0 mph9.7 kmh 29.89 in1012.2 mb 0.00 in0.0 mm 0.00 in/hr0.0 mm/hr 0.00 in0.0 mm
06:50 PM 81.7°F27.6°C 69.7°F20.9°C 67% 3.8 mph NW6.1 kmh NW 6.0 mph9.7 kmh 29.89 in1012.2 mb 0.00 in0.0 mm 0.00 in/hr0.0 mm/hr 0.00 in0.0 mm
06:55 PM 81.3°F27.4°C 69.8°F21.0°C 68% 3.1 mph NW5.0 kmh NW 6.0 mph9.7 kmh 29.90 in1012.5 mb 0.00 in0.0 mm 0.00 in/hr0.0 mm/hr 0.00 in0.0 mm
07:00 PM 81.0°F27.2°C 69.9°F21.1°C 69% 2.2 mph NW3.5 kmh NW 6.0 mph9.7 kmh 29.90 in1012.5 mb 0.00 in0.0 mm 0.00 in/hr0.0 mm/hr 0.00 in0.0 mm
07:05 PM 80.8°F27.1°C 70.1°F21.2°C 70% 3.1 mph NW5.0 kmh NW 6.9 mph11.1 kmh 29.90 in1012.5 mb 0.00 in0.0 mm 0.00 in/hr0.0 mm/hr 0.00 in0.0 mm
07:10 PM 80.4°F26.9°C 69.8°F21.0°C 70% 1.6 mph NW2.6 kmh NW 6.9 mph11.1 kmh 29.90 in1012.5 mb 0.00 in0.0 mm 0.00 in/hr0.0 mm/hr 0.00 in0.0 mm
07:15 PM 80.1°F26.7°C 69.9°F21.1°C 71% 2.2 mph NW3.5 kmh NW 6.9 mph11.1 kmh 29.90 in1012.5 mb 0.00 in0.0 mm 0.00 in/hr0.0 mm/hr 0.00 in0.0 mm
07:20 PM 79.7°F26.5°C 69.9°F21.1°C 72% 4.5 mph NW7.2 kmh NW 6.0 mph9.7 kmh 29.91 in1012.9 mb 0.00 in0.0 mm 0.00 in/hr0.0 mm/hr 0.00 in0.0 mm
07:25 PM 79.5°F26.4°C 70.2°F21.2°C 73% 3.8 mph NW6.1 kmh NW 8.3 mph13.4 kmh 29.91 in1012.9 mb 0.00 in0.0 mm 0.00 in/hr0.0 mm/hr 0.00 in0.0 mm
07:30 PM 79.3°F26.3°C 70.8°F21.6°C 75% 4.5 mph NW7.2 kmh NW 8.3 mph13.4 kmh 29.91 in1012.9 mb 0.00 in0.0 mm 0.00 in/hr0.0 mm/hr 0.00 in0.0 mm
07:35 PM 79.0°F26.1°C 70.8°F21.6°C 76% 6.0 mph NNW9.7 kmh NNW 8.3 mph13.4 kmh 29.91 in1012.9 mb 0.00 in0.0 mm 0.00 in/hr0.0 mm/hr 0.00 in0.0 mm
07:40 PM 78.8°F26.0°C 70.6°F21.4°C 76% 5.4 mph NW8.7 kmh NW 10.7 mph17.2 kmh 29.91 in1012.9 mb 0.00 in0.0 mm 0.00 in/hr0.0 mm/hr 0.00 in0.0 mm
07:45 PM 78.6°F25.9°C 70.9°F21.6°C 77% 4.5 mph NW7.2 kmh NW 10.7 mph17.2 kmh 29.91 in1012.9 mb 0.00 in0.0 mm 0.00 in/hr0.0 mm/hr 0.00 in0.0 mm
07:50 PM 78.4°F25.8°C 70.7°F21.5°C 77% 4.5 mph NNW7.2 kmh NNW 9.8 mph15.8 kmh 29.90 in1012.5 mb 0.00 in0.0 mm 0.00 in/hr0.0 mm/hr 0.00 in0.0 mm
07:55 PM 78.3°F25.7°C 70.5°F21.4°C 77% 7.6 mph N12.2 kmh N 10.7 mph17.2 kmh 29.90 in1012.5 mb 0.00 in0.0 mm 0.00 in/hr0.0 mm/hr 0.00 in0.0 mm
08:00 PM 78.1°F25.6°C 70.7°F21.5°C 78% 5.4 mph N8.7 kmh N 10.7 mph17.2 kmh 29.90 in1012.5 mb 0.00 in0.0 mm 0.00 in/hr0.0 mm/hr 0.00 in0.0 mm
08:05 PM 77.9°F25.5°C 70.5°F21.4°C 78% 3.8 mph N6.1 kmh N 10.7 mph17.2 kmh 29.91 in1012.9 mb 0.00 in0.0 mm 0.00 in/hr0.0 mm/hr 0.00 in0.0 mm
08:10 PM 77.5°F25.3°C 70.6°F21.4°C 79% 3.8 mph N6.1 kmh N 7.6 mph12.2 kmh 29.90 in1012.5 mb 0.00 in0.0 mm 0.00 in/hr0.0 mm/hr 0.00 in0.0 mm
08:15 PM 77.5°F25.3°C 70.6°F21.4°C 79% 3.8 mph N6.1 kmh N 6.9 mph11.1 kmh 29.91 in1012.9 mb 0.00 in0.0 mm 0.00 in/hr0.0 mm/hr 0.00 in0.0 mm
08:20 PM 77.4°F25.2°C 70.8°F21.6°C 80% 3.1 mph N5.0 kmh N 6.9 mph11.1 kmh 29.91 in1012.9 mb 0.00 in0.0 mm 0.00 in/hr0.0 mm/hr 0.00 in0.0 mm
08:25 PM 77.4°F25.2°C 70.8°F21.6°C 80% 5.4 mph N8.7 kmh N 7.6 mph12.2 kmh 29.90 in1012.5 mb 0.00 in0.0 mm 0.00 in/hr0.0 mm/hr 0.00 in0.0 mm
08:30 PM 77.2°F25.1°C 70.9°F21.6°C 81% 4.5 mph N7.2 kmh N 7.6 mph12.2 kmh 29.91 in1012.9 mb 0.00 in0.0 mm 0.00 in/hr0.0 mm/hr 0.00 in0.0 mm
08:35 PM 77.2°F25.1°C 70.9°F21.6°C 81% 4.5 mph N7.2 kmh N 7.6 mph12.2 kmh 29.91 in1012.9 mb 0.00 in0.0 mm 0.00 in/hr0.0 mm/hr 0.00 in0.0 mm
08:40 PM 77.0°F25.0°C 71.1°F21.7°C 82% 3.8 mph N6.1 kmh N 7.6 mph12.2 kmh 29.91 in1012.9 mb 0.00 in0.0 mm 0.00 in/hr0.0 mm/hr 0.00 in0.0 mm
08:45 PM 76.8°F24.9°C 71.3°F21.8°C 83% 2.2 mph N3.5 kmh N 7.6 mph12.2 kmh 29.92 in1013.2 mb 0.00 in0.0 mm 0.00 in/hr0.0 mm/hr 0.00 in0.0 mm
08:50 PM 76.8°F24.9°C 71.3°F21.8°C 83% 2.2 mph N3.5 kmh N 5.4 mph8.7 kmh 29.91 in1012.9 mb 0.00 in0.0 mm 0.00 in/hr0.0 mm/hr 0.00 in0.0 mm
08:55 PM 76.8°F24.9°C 71.3°F21.8°C 83% 3.1 mph N5.0 kmh N 5.4 mph8.7 kmh 29.92 in1013.2 mb 0.00 in0.0 mm 0.00 in/hr0.0 mm/hr 0.00 in0.0 mm
09:00 PM 76.8°F24.9°C 71.3°F21.8°C 83% 3.1 mph N5.0 kmh N 5.4 mph8.7 kmh 29.92 in1013.2 mb 0.00 in0.0 mm 0.00 in/hr0.0 mm/hr 0.00 in0.0 mm
09:05 PM 76.6°F24.8°C 71.1°F21.7°C 83% 4.5 mph N7.2 kmh N 6.0 mph9.7 kmh 29.92 in1013.2 mb 0.00 in0.0 mm 0.00 in/hr0.0 mm/hr 0.00 in0.0 mm
09:10 PM 76.6°F24.8°C 71.5°F21.9°C 84% 3.1 mph N5.0 kmh N 6.0 mph9.7 kmh 29.92 in1013.2 mb 0.00 in0.0 mm 0.00 in/hr0.0 mm/hr 0.00 in0.0 mm
09:15 PM 76.6°F24.8°C 71.8°F22.1°C 85% 3.8 mph N6.1 kmh N 6.0 mph9.7 kmh 29.92 in1013.2 mb 0.00 in0.0 mm 0.00 in/hr0.0 mm/hr 0.00 in0.0 mm
09:20 PM 76.6°F24.8°C 72.2°F22.3°C 86% 3.8 mph N6.1 kmh N 6.0 mph9.7 kmh 29.93 in1013.5 mb 0.00 in0.0 mm 0.00 in/hr0.0 mm/hr 0.00 in0.0 mm
09:25 PM 76.6°F24.8°C 72.5°F22.5°C 87% 3.1 mph N5.0 kmh N 6.0 mph9.7 kmh 29.93 in1013.5 mb 0.00 in0.0 mm 0.00 in/hr0.0 mm/hr 0.00 in0.0 mm
09:30 PM 76.5°F24.7°C 72.4°F22.4°C 87% 3.1 mph N5.0 kmh N 6.0 mph9.7 kmh 29.93 in1013.5 mb 0.00 in0.0 mm 0.00 in/hr0.0 mm/hr 0.00 in0.0 mm
09:35 PM 76.5°F24.7°C 72.4°F22.4°C 87% 3.1 mph N5.0 kmh N 6.0 mph9.7 kmh 29.93 in1013.5 mb 0.00 in0.0 mm 0.00 in/hr0.0 mm/hr 0.00 in0.0 mm
09:40 PM 76.3°F24.6°C 72.2°F22.3°C 87% 3.1 mph N5.0 kmh N 6.0 mph9.7 kmh 29.93 in1013.5 mb 0.00 in0.0 mm 0.00 in/hr0.0 mm/hr 0.00 in0.0 mm
09:45 PM 76.3°F24.6°C 72.2°F22.3°C 87% 2.2 mph N3.5 kmh N 4.5 mph7.2 kmh 29.93 in1013.5 mb 0.00 in0.0 mm 0.00 in/hr0.0 mm/hr 0.00 in0.0 mm
09:50 PM 76.1°F24.5°C 72.3°F22.4°C 88% 2.2 mph N3.5 kmh N 4.5 mph7.2 kmh 29.93 in1013.5 mb 0.00 in0.0 mm 0.00 in/hr0.0 mm/hr 0.00 in0.0 mm
09:55 PM 75.9°F24.4°C 72.2°F22.3°C 88% 2.2 mph N3.5 kmh N 3.8 mph6.1 kmh 29.92 in1013.2 mb 0.00 in0.0 mm 0.00 in/hr0.0 mm/hr 0.00 in0.0 mm
10:00 PM 75.7°F24.3°C 72.3°F22.4°C 89% 2.2 mph N3.5 kmh N 3.8 mph6.1 kmh 29.93 in1013.5 mb 0.00 in0.0 mm 0.00 in/hr0.0 mm/hr 0.00 in0.0 mm
10:05 PM 75.6°F24.2°C 72.1°F22.3°C 89% 1.6 mph NNE2.6 kmh NNE 3.8 mph6.1 kmh 29.93 in1013.5 mb 0.00 in0.0 mm 0.00 in/hr0.0 mm/hr 0.00 in0.0 mm
10:10 PM 75.6°F24.2°C 72.1°F22.3°C 89% 1.6 mph NNE2.6 kmh NNE 3.1 mph5.0 kmh 29.93 in1013.5 mb 0.00 in0.0 mm 0.00 in/hr0.0 mm/hr 0.00 in0.0 mm
10:15 PM 75.4°F24.1°C 72.3°F22.4°C 90% 2.2 mph N3.5 kmh N 3.8 mph6.1 kmh 29.93 in1013.5 mb 0.00 in0.0 mm 0.00 in/hr0.0 mm/hr 0.00 in0.0 mm
10:20 PM 75.4°F24.1°C 72.0°F22.2°C 89% 1.6 mph N2.6 kmh N 3.8 mph6.1 kmh 29.93 in1013.5 mb 0.00 in0.0 mm 0.00 in/hr0.0 mm/hr 0.00 in0.0 mm
10:25 PM 75.4°F24.1°C 72.0°F22.2°C 89% 2.2 mph N3.5 kmh N 3.8 mph6.1 kmh 29.94 in1013.9 mb 0.00 in0.0 mm 0.00 in/hr0.0 mm/hr 0.00 in0.0 mm
10:30 PM 75.4°F24.1°C 71.6°F22.0°C 88% 2.2 mph N3.5 kmh N 3.8 mph6.1 kmh 29.93 in1013.5 mb 0.00 in0.0 mm 0.00 in/hr0.0 mm/hr 0.00 in0.0 mm
10:35 PM 75.4°F24.1°C 71.6°F22.0°C 88% 2.2 mph N3.5 kmh N 4.5 mph7.2 kmh 29.93 in1013.5 mb 0.00 in0.0 mm 0.00 in/hr0.0 mm/hr 0.00 in0.0 mm
10:40 PM 75.4°F24.1°C 71.6°F22.0°C 88% 3.1 mph N5.0 kmh N 4.5 mph7.2 kmh 29.93 in1013.5 mb 0.00 in0.0 mm 0.00 in/hr0.0 mm/hr 0.00 in0.0 mm
10:45 PM 75.6°F24.2°C 71.8°F22.1°C 88% 1.6 mph N2.6 kmh N 3.8 mph6.1 kmh 29.93 in1013.5 mb 0.00 in0.0 mm 0.00 in/hr0.0 mm/hr 0.00 in0.0 mm
10:50 PM 75.4°F24.1°C 71.6°F22.0°C 88% 1.6 mph N2.6 kmh N 3.8 mph6.1 kmh 29.93 in1013.5 mb 0.00 in0.0 mm 0.00 in/hr0.0 mm/hr 0.00 in0.0 mm
10:55 PM 75.4°F24.1°C 71.6°F22.0°C 88% 2.2 mph N3.5 kmh N 3.1 mph5.0 kmh 29.93 in1013.5 mb 0.00 in0.0 mm 0.00 in/hr0.0 mm/hr 0.00 in0.0 mm
11:00 PM 75.4°F24.1°C 71.6°F22.0°C 88% 2.2 mph NNE3.5 kmh NNE 3.8 mph6.1 kmh 29.93 in1013.5 mb 0.00 in0.0 mm 0.00 in/hr0.0 mm/hr 0.00 in0.0 mm
11:05 PM 75.4°F24.1°C 71.6°F22.0°C 88% 1.6 mph NNE2.6 kmh NNE 3.8 mph6.1 kmh 29.93 in1013.5 mb 0.00 in0.0 mm 0.00 in/hr0.0 mm/hr 0.00 in0.0 mm
11:10 PM 75.4°F24.1°C 72.0°F22.2°C 89% 2.2 mph NNE3.5 kmh NNE 3.8 mph6.1 kmh 29.93 in1013.5 mb 0.00 in0.0 mm 0.00 in/hr0.0 mm/hr 0.00 in0.0 mm
11:15 PM 75.2°F24.0°C 71.8°F22.1°C 89% 1.6 mph N2.6 kmh N 3.1 mph5.0 kmh 29.92 in1013.2 mb 0.00 in0.0 mm 0.00 in/hr0.0 mm/hr 0.00 in0.0 mm
11:20 PM 75.2°F24.0°C 71.8°F22.1°C 89% 1.6 mph NNE2.6 kmh NNE 3.8 mph6.1 kmh 29.93 in1013.5 mb 0.00 in0.0 mm 0.00 in/hr0.0 mm/hr 0.00 in0.0 mm
11:25 PM 75.2°F24.0°C 71.8°F22.1°C 89% 1.6 mph N2.6 kmh N 3.8 mph6.1 kmh 29.92 in1013.2 mb 0.00 in0.0 mm 0.00 in/hr0.0 mm/hr 0.00 in0.0 mm
11:30 PM 75.2°F24.0°C 72.1°F22.3°C 90% 3.1 mph N5.0 kmh N 5.4 mph8.7 kmh 29.92 in1013.2 mb 0.00 in0.0 mm 0.00 in/hr0.0 mm/hr 0.00 in0.0 mm
11:35 PM 75.0°F23.9°C 71.9°F22.2°C 90% 3.1 mph N5.0 kmh N 5.4 mph8.7 kmh 29.92 in1013.2 mb 0.00 in0.0 mm 0.00 in/hr0.0 mm/hr 0.00 in0.0 mm
11:40 PM 75.0°F23.9°C 71.9°F22.2°C 90% 3.1 mph N5.0 kmh N 5.4 mph8.7 kmh 29.92 in1013.2 mb 0.00 in0.0 mm 0.00 in/hr0.0 mm/hr 0.00 in0.0 mm
11:45 PM 75.0°F23.9°C 71.9°F22.2°C 90% 3.1 mph N5.0 kmh N 4.5 mph7.2 kmh 29.92 in1013.2 mb 0.00 in0.0 mm 0.00 in/hr0.0 mm/hr 0.00 in0.0 mm
11:50 PM 74.8°F23.8°C 71.8°F22.1°C 90% 2.2 mph N3.5 kmh N 4.5 mph7.2 kmh 29.92 in1013.2 mb 0.00 in0.0 mm 0.00 in/hr0.0 mm/hr 0.00 in0.0 mm
11:55 PM 74.7°F23.7°C 71.6°F22.0°C 90% 1.6 mph N2.6 kmh N 4.5 mph7.2 kmh 29.92 in1013.2 mb 0.00 in0.0 mm 0.00 in/hr0.0 mm/hr 0.00 in0.0 mm